Weather at Nekemte Airport

Public forecast

Using degrees Celsius for public forecast. Weather courtesy of forecast.io.

Closest aviation weather report (METAR) to Nekemte Airport

Closest report is Addis Ababa Bole International Airport, 129.7 nm (240.2 km) E.

2024/07/14 16:00 (retrieved 30 minutes ago)

HAAB 141600Z 00000KT 9999 BKN024 17/14 Q1025

Closest aviation forecast (TAF) to Nekemte Airport

Closest forecast is Addis Ababa Bole International Airport, 129.7 nm (240.2 km) E.

2024/07/14 10:45 (retrieved 6 hours ago)

TAF HAAB 140930Z 1410/1516 23006KT 9999 8000 OVC030 BECMG 1411/1417 18004KT 6000 SHRA OVC030